Time;durP1;ratioP1;P1;durP2;ratioP2;P2;SDS_P1;SDS_P2;PMS_P1;PMS_P2;Temp;Humidity;BMP_temperature;BMP_pressure;BME280_temperature;BME280_humidity;BME280_pressure;Samples;Min_cycle;Max_cycle;Signal;HPM_P1;HPM_P2
2022/12/17 13:06:41;;;;;;;70.28;30.05;;;0.20;99.90;;;;;;5017283;28;20096;-83
2022/12/17 13:09:16;;;;;;;66.95;28.83;;;0.30;99.90;;;;;;5018936;28;20045;-83
2022/12/17 13:12:20;;;;;;;71.45;30.80;;;0.40;99.90;;;;;;5020908;28;20511;-82
2022/12/17 13:15:01;;;;;;;69.88;30.92;;;0.50;99.90;;;;;;5018544;28;20504;-81
2022/12/17 13:17:42;;;;;;;64.70;30.58;;;0.60;99.90;;;;;;5017412;28;20092;-81
2022/12/17 13:20:31;;;;;;;67.30;30.08;;;0.60;99.90;;;;;;5017374;28;20045;-82
2022/12/17 13:23:16;;;;;;;67.65;30.58;;;0.60;99.90;;;;;;5022285;28;20037;-81
2022/12/17 13:25:42;;;;;;;73.10;30.63;;;0.50;99.90;;;;;;5012197;28;20041;-81
2022/12/17 13:28:29;;;;;;;66.22;28.20;;;0.50;99.90;;;;;;5021821;28;20405;-81
2022/12/17 13:31:04;;;;;;;65.40;29.90;;;0.40;99.90;;;;;;5008838;28;20121;-81
2022/12/17 13:33:42;;;;;;;68.60;30.42;;;0.40;99.90;;;;;;5011061;28;20756;-81
2022/12/17 13:36:27;;;;;;;67.93;31.05;;;0.50;99.90;;;;;;5014933;28;20042;-81
2022/12/17 13:39:04;;;;;;;69.30;31.58;;;0.50;99.90;;;;;;5009957;28;20492;-81
2022/12/17 13:41:34;;;;;;;68.93;30.60;;;0.50;99.90;;;;;;5010471;28;20046;-82
2022/12/17 13:44:24;;;;;;;70.45;31.42;;;0.50;99.90;;;;;;5010835;28;20034;-81
2022/12/17 13:46:52;;;;;;;67.75;30.00;;;0.50;99.90;;;;;;5018368;28;20496;-81
2022/12/17 13:49:23;;;;;;;71.65;28.92;;;0.50;99.90;;;;;;5014104;28;20048;-81
2022/12/17 13:52:15;;;;;;;74.38;31.13;;;0.40;99.90;;;;;;5016261;28;20550;-82
2022/12/17 13:54:40;;;;;;;70.40;31.60;;;0.30;99.90;;;;;;5008336;28;20488;-81
2022/12/17 13:57:08;;;;;;;73.63;30.67;;;0.30;99.90;;;;;;5013540;28;20037;-81
2022/12/17 13:59:34;;;;;;;74.90;33.20;;;0.30;99.90;;;;;;5013180;28;20033;-81
2022/12/17 14:02:00;;;;;;;73.05;29.95;;;0.20;99.90;;;;;;5008750;28;20045;-82
2022/12/17 14:04:28;;;;;;;65.88;30.55;;;0.20;99.90;;;;;;5013200;28;20083;-81
2022/12/17 14:06:59;;;;;;;67.57;27.10;;;0.20;99.90;;;;;;5025396;28;20038;-81
2022/12/17 14:09:33;;;;;;;66.13;28.30;;;0.20;99.90;;;;;;5008293;28;20049;-81
2022/12/17 14:15:07;;;;;;;70.78;30.00;;;0.20;99.90;;;;;;5010031;28;20008;-81
2022/12/17 14:17:37;;;;;;;68.25;27.67;;;0.10;99.90;;;;;;5009501;28;20112;-82
2022/12/17 14:20:09;;;;;;;71.90;30.60;;;0.10;99.90;;;;;;5009317;28;20042;-82
2022/12/17 14:23:13;;;;;;;74.93;30.25;;;0.00;99.90;;;;;;5020117;28;20386;-82
2022/12/17 14:25:41;;;;;;;67.20;31.38;;;-0.10;99.90;;;;;;5005766;28;20057;-82
2022/12/17 14:28:31;;;;;;;68.82;28.63;;;-0.10;99.90;;;;;;5014676;28;20033;-81
2022/12/17 14:31:27;;;;;;;73.72;31.25;;;-0.20;99.90;;;;;;5009358;28;20112;-82
2022/12/17 14:34:09;;;;;;;61.53;27.92;;;-0.20;99.90;;;;;;5005643;28;20143;-81
2022/12/17 14:36:42;;;;;;;78.25;30.85;;;-0.20;99.90;;;;;;5009125;28;20041;-81
2022/12/17 14:39:27;;;;;;;73.38;31.92;;;-0.30;99.90;;;;;;5009180;28;20042;-81
2022/12/17 14:45:05;;;;;;;64.03;28.35;;;-0.30;99.90;;;;;;5018985;28;20120;-81
2022/12/17 14:47:33;;;;;;;71.72;29.65;;;-0.40;99.90;;;;;;5009148;28;20034;-81
2022/12/17 14:50:11;;;;;;;69.95;28.00;;;-0.40;99.90;;;;;;5013476;28;20273;-81
2022/12/17 14:52:37;;;;;;;69.28;28.45;;;-0.50;99.90;;;;;;5014494;28;20060;-81
2022/12/17 14:55:21;;;;;;;77.70;30.92;;;-0.50;99.90;;;;;;5010689;28;20046;-81
2022/12/17 14:57:48;;;;;;;66.78;28.10;;;-0.50;99.90;;;;;;5017013;28;20060;-81
2022/12/17 15:00:14;;;;;;;68.88;31.23;;;-0.60;99.90;;;;;;5010970;28;20124;-82
2022/12/17 15:02:42;;;;;;;75.63;29.48;;;-0.60;99.90;;;;;;5008871;28;20111;-81
2022/12/17 15:05:13;;;;;;;74.57;29.67;;;-0.60;99.90;;;;;;5014547;28;20075;-81
2022/12/17 15:07:39;;;;;;;76.43;29.83;;;-0.70;99.90;;;;;;5019256;28;20037;-81
2022/12/17 15:10:17;;;;;;;75.97;31.48;;;-0.70;99.90;;;;;;5015831;28;20046;-81
2022/12/17 15:12:43;;;;;;;65.82;28.77;;;-0.70;99.90;;;;;;5009561;28;20056;-81
2022/12/17 15:15:13;;;;;;;65.80;28.60;;;-0.70;99.90;;;;;;5016264;28;20041;-81
2022/12/17 15:17:39;;;;;;;70.63;29.50;;;-0.70;99.90;;;;;;5007685;28;20037;-81
2022/12/17 15:20:05;;;;;;;72.75;30.42;;;-0.70;99.90;;;;;;5011499;28;20139;-80
2022/12/17 15:22:31;;;;;;;77.05;29.38;;;-0.70;99.90;;;;;;5016710;28;20084;-81
2022/12/17 15:24:56;;;;;;;69.20;26.88;;;-0.70;99.90;;;;;;5013911;28;20447;-81
2022/12/17 15:27:22;;;;;;;76.55;27.60;;;-0.60;99.90;;;;;;5013341;28;20105;-82
2022/12/17 15:29:47;;;;;;;70.82;27.40;;;-0.60;99.90;;;;;;5012081;28;20472;-81
2022/12/17 15:32:21;;;;;;;65.72;27.13;;;-0.70;99.90;;;;;;5006544;28;20162;-81
2022/12/17 15:34:48;;;;;;;78.15;29.13;;;-0.70;99.90;;;;;;5021884;28;20515;-81
2022/12/17 15:37:15;;;;;;;77.13;29.13;;;-0.70;99.90;;;;;;5013302;28;20393;-81
2022/12/17 15:39:40;;;;;;;73.47;30.02;;;-0.70;99.90;;;;;;5018579;28;20112;-82
2022/12/17 15:44:52;;;;;;;68.05;27.42;;;-0.80;99.90;;;;;;5011365;28;20419;-83
2022/12/17 15:47:17;;;;;;;66.30;26.45;;;-0.80;99.90;;;;;;5015878;28;20041;-82
2022/12/17 15:49:43;;;;;;;66.32;25.45;;;-0.80;99.90;;;;;;5016659;28;20096;-83
2022/12/17 15:52:09;;;;;;;69.45;26.92;;;-0.80;99.90;;;;;;5007859;28;20050;-82
2022/12/17 15:54:37;;;;;;;75.38;26.65;;;-0.80;99.90;;;;;;5013248;28;20096;-81
2022/12/17 15:57:03;;;;;;;67.30;26.25;;;-0.80;99.90;;;;;;5006968;28;20057;-81
2022/12/17 15:59:28;;;;;;;70.05;25.67;;;-0.80;99.90;;;;;;5015614;28;20038;-81
2022/12/17 16:01:54;;;;;;;68.78;23.92;;;-0.90;99.90;;;;;;5007518;28;20042;-81
2022/12/17 16:04:19;;;;;;;65.95;29.00;;;-1.00;99.90;;;;;;5012128;28;20469;-81
2022/12/17 16:06:45;;;;;;;75.55;27.40;;;-1.00;99.90;;;;;;5024173;28;20050;-81
2022/12/17 16:09:11;;;;;;;67.40;27.20;;;-1.00;99.90;;;;;;5011638;28;20034;-81
2022/12/17 16:11:36;;;;;;;68.32;28.52;;;-1.00;99.90;;;;;;5011327;28;20046;-81
2022/12/17 16:14:02;;;;;;;69.50;28.27;;;-1.10;99.90;;;;;;5020266;28;20463;-81
2022/12/17 16:16:29;;;;;;;72.78;26.83;;;-1.10;99.90;;;;;;5017134;28;20046;-81
2022/12/17 16:18:55;;;;;;;72.03;27.73;;;-1.10;99.90;;;;;;5017684;28;20037;-82
2022/12/17 16:21:20;;;;;;;75.95;26.98;;;-1.10;99.90;;;;;;5017869;28;20046;-83
2022/12/17 16:23:46;;;;;;;78.53;29.13;;;-1.10;99.90;;;;;;5018683;28;20045;-81
2022/12/17 16:26:11;;;;;;;80.13;28.58;;;-1.10;99.90;;;;;;5017425;28;20037;-81
2022/12/17 16:28:38;;;;;;;79.90;29.48;;;-1.00;99.90;;;;;;5016052;28;20040;-82
2022/12/17 16:31:05;;;;;;;75.28;30.17;;;-1.00;99.90;;;;;;5020521;28;20046;-82
2022/12/17 16:33:32;;;;;;;82.80;30.48;;;-1.00;99.90;;;;;;5009645;28;20087;-83
2022/12/17 16:35:57;;;;;;;73.55;29.30;;;-1.00;99.90;;;;;;5019050;28;20421;-82
2022/12/17 16:38:23;;;;;;;73.88;26.35;;;-1.00;99.90;;;;;;5012362;28;20103;-83
2022/12/17 16:40:48;;;;;;;70.90;28.83;;;-1.00;99.90;;;;;;5014372;28;20053;-79
2022/12/17 16:43:14;;;;;;;72.53;27.15;;;-1.10;99.90;;;;;;5022376;28;20065;-78
2022/12/17 16:45:48;;;;;;;67.93;25.40;;;-1.10;99.90;;;;;;5010774;28;20131;-78
2022/12/17 16:48:16;;;;;;;76.93;26.58;;;-1.10;99.90;;;;;;5014814;28;20037;-77
2022/12/17 16:50:42;;;;;;;67.65;25.98;;;-1.10;99.90;;;;;;5032286;28;20660;-79
2022/12/17 16:53:07;;;;;;;78.63;27.98;;;-1.10;99.90;;;;;;5012532;28;20038;-78
2022/12/17 16:55:38;;;;;;;74.47;29.10;;;-1.10;99.90;;;;;;5034914;28;20041;-78
2022/12/17 16:58:03;;;;;;;75.75;26.48;;;-1.20;99.90;;;;;;5019843;28;20046;-79
2022/12/17 17:00:29;;;;;;;75.38;27.55;;;-1.20;99.90;;;;;;5015603;28;20452;-78
2022/12/17 17:02:55;;;;;;;68.93;26.10;;;-1.20;99.90;;;;;;5020083;28;20038;-79
2022/12/17 17:05:20;;;;;;;70.40;24.67;;;-1.20;99.90;;;;;;5011719;28;20041;-78
2022/12/17 17:07:46;;;;;;;67.35;23.67;;;-1.30;99.90;;;;;;5018487;28;20061;-79
2022/12/17 17:10:11;;;;;;;63.05;24.27;;;-1.30;99.90;;;;;;5009949;28;20137;-79
2022/12/17 17:12:37;;;;;;;71.93;24.25;;;-1.30;99.90;;;;;;5017821;28;20041;-79
2022/12/17 17:15:03;;;;;;;74.30;25.20;;;-1.30;99.90;;;;;;5017687;28;20457;-80
2022/12/17 17:17:28;;;;;;;76.68;28.42;;;-1.30;99.90;;;;;;5021256;28;20646;-80
2022/12/17 17:19:54;;;;;;;76.45;23.98;;;-1.40;99.90;;;;;;5008886;28;20138;-80
2022/12/17 17:22:20;;;;;;;81.55;28.40;;;-1.30;99.90;;;;;;5012541;28;20400;-79
2022/12/17 17:24:45;;;;;;;72.80;26.67;;;-1.30;99.90;;;;;;4999148;28;20124;-79
2022/12/17 17:27:11;;;;;;;81.40;27.45;;;-1.40;99.90;;;;;;5013820;28;20042;-79
2022/12/17 17:29:37;;;;;;;76.35;24.98;;;-1.40;99.90;;;;;;5017457;28;20049;-79
2022/12/17 17:32:02;;;;;;;75.45;26.40;;;-1.40;99.90;;;;;;5012727;28;20060;-80
2022/12/17 17:34:28;;;;;;;68.95;23.67;;;-1.40;99.90;;;;;;5021006;28;20064;-79
2022/12/17 17:36:54;;;;;;;80.82;28.23;;;-1.40;99.90;;;;;;5022885;28;20050;-79
2022/12/17 17:39:19;;;;;;;78.57;27.58;;;-1.40;99.90;;;;;;5008829;28;20049;-80
2022/12/17 17:41:45;;;;;;;86.63;28.88;;;-1.40;99.90;;;;;;5016055;28;20419;-79
2022/12/17 17:44:12;;;;;;;79.90;29.25;;;-1.40;99.90;;;;;;5018848;28;20049;-79
2022/12/17 17:46:38;;;;;;;88.15;29.95;;;-1.40;99.90;;;;;;5012163;28;20045;-79
2022/12/17 17:49:06;;;;;;;84.47;27.02;;;-1.40;99.90;;;;;;5016499;28;20037;-80
2022/12/17 17:51:34;;;;;;;86.55;26.77;;;-1.40;99.90;;;;;;5015313;28;20041;-81
2022/12/17 17:54:01;;;;;;;82.75;28.00;;;-1.40;99.90;;;;;;5022580;28;20111;-80
2022/12/17 17:56:29;;;;;;;77.40;27.90;;;-1.40;99.90;;;;;;5010826;28;20128;-80
2022/12/17 17:58:58;;;;;;;88.30;30.23;;;-1.50;99.90;;;;;;5016916;28;20049;-80
2022/12/17 18:01:27;;;;;;;80.65;29.00;;;-1.40;99.90;;;;;;5010864;28;20030;-80
2022/12/17 18:03:55;;;;;;;74.78;25.98;;;-1.50;99.90;;;;;;5015064;28;20650;-80
2022/12/17 18:06:21;;;;;;;91.00;30.25;;;-1.50;99.90;;;;;;5004046;28;20068;-80
2022/12/17 18:08:47;;;;;;;71.80;27.48;;;-1.50;99.90;;;;;;5011937;28;20041;-80
2022/12/17 18:11:16;;;;;;;76.10;28.15;;;-1.50;99.90;;;;;;5016107;28;20123;-80
2022/12/17 18:13:55;;;;;;;86.45;30.55;;;-1.50;99.90;;;;;;5013012;28;20301;-79
2022/12/17 18:16:25;;;;;;;69.75;25.60;;;-1.60;99.90;;;;;;5015209;28;20484;-80
2022/12/17 18:19:00;;;;;;;77.47;27.30;;;-1.60;99.90;;;;;;5018293;28;20480;-80
2022/12/17 18:21:27;;;;;;;78.60;30.02;;;-1.60;99.90;;;;;;5010915;28;20065;-80
2022/12/17 18:23:59;;;;;;;67.43;27.15;;;-1.70;99.90;;;;;;5017794;28;20045;-80
2022/12/17 18:26:27;;;;;;;72.75;26.20;;;-1.70;99.90;;;;;;5012746;28;20427;-80
2022/12/17 18:28:53;;;;;;;75.05;27.00;;;-1.70;99.90;;;;;;5003898;28;20053;-79
2022/12/17 18:31:22;;;;;;;72.03;28.98;;;-1.70;99.90;;;;;;5008356;28;20034;-79
2022/12/17 18:33:51;;;;;;;72.90;27.60;;;-1.70;99.90;;;;;;5012480;28;20061;-80
2022/12/17 18:36:29;;;;;;;75.88;26.63;;;-1.70;99.90;;;;;;5019252;28;21831;-80
2022/12/17 18:39:06;;;;;;;72.35;27.25;;;-1.70;99.90;;;;;;5009124;28;20129;-80
2022/12/17 18:44:16;;;;;;;73.95;26.33;;;-1.70;99.90;;;;;;5018364;28;20702;-82
2022/12/17 18:46:42;;;;;;;71.93;25.67;;;-1.70;99.90;;;;;;5009640;28;20467;-82
2022/12/17 18:49:10;;;;;;;68.28;26.00;;;-1.70;99.90;;;;;;5016385;28;20075;-80
2022/12/17 18:51:38;;;;;;;84.00;27.70;;;-1.70;99.90;;;;;;5017602;28;20572;-81
2022/12/17 18:54:07;;;;;;;68.32;28.30;;;-1.70;99.90;;;;;;5021389;28;20056;-81
2022/12/17 18:56:35;;;;;;;70.25;27.02;;;-1.70;99.90;;;;;;5016837;28;20042;-80
2022/12/17 18:59:01;;;;;;;74.65;26.88;;;-1.70;99.90;;;;;;5016038;28;20124;-81
2022/12/17 19:01:29;;;;;;;80.68;28.52;;;-1.70;99.90;;;;;;5017818;28;20091;-80
2022/12/17 19:03:56;;;;;;;71.05;26.58;;;-1.70;99.90;;;;;;5012265;28;20044;-81
2022/12/17 19:06:23;;;;;;;74.82;27.35;;;-1.80;99.90;;;;;;5017759;28;20056;-80
2022/12/17 19:08:49;;;;;;;77.43;27.98;;;-1.70;99.90;;;;;;5016533;28;20041;-80
2022/12/17 19:11:18;;;;;;;58.72;21.73;;;-1.80;99.90;;;;;;5016544;28;20065;-80
2022/12/17 19:13:44;;;;;;;88.57;30.58;;;-1.70;99.90;;;;;;5014799;28;20038;-80
2022/12/17 19:16:13;;;;;;;76.20;30.38;;;-1.70;99.90;;;;;;5011618;28;20037;-81
2022/12/17 19:18:40;;;;;;;83.10;29.92;;;-1.70;99.90;;;;;;5014226;28;20042;-80
2022/12/17 19:21:07;;;;;;;76.68;29.90;;;-1.70;99.90;;;;;;5009377;28;20038;-81
2022/12/17 19:23:33;;;;;;;77.85;27.92;;;-1.70;99.90;;;;;;5018189;28;20045;-81
2022/12/17 19:26:07;;;;;;;71.15;28.73;;;-1.70;99.90;;;;;;5025160;28;20056;-81
2022/12/17 19:28:33;;;;;;;76.68;30.30;;;-1.70;99.90;;;;;;5009030;28;20480;-81
2022/12/17 19:30:59;;;;;;;88.45;33.53;;;-1.70;99.90;;;;;;5009155;28;20040;-81
2022/12/17 19:33:25;;;;;;;73.85;29.65;;;-1.70;99.90;;;;;;5008490;28;20049;-81
2022/12/17 19:35:58;;;;;;;77.03;29.40;;;-1.70;99.90;;;;;;5026571;28;20049;-81
2022/12/17 19:38:24;;;;;;;69.57;27.88;;;-1.70;99.90;;;;;;5022896;28;20053;-81
2022/12/17 19:40:51;;;;;;;77.80;29.70;;;-1.80;99.90;;;;;;5028565;28;20151;-81
2022/12/17 19:43:17;;;;;;;70.47;31.67;;;-1.70;99.90;;;;;;5019940;28;20030;-81
2022/12/17 19:45:42;;;;;;;79.20;31.95;;;-1.80;99.90;;;;;;5018744;28;20050;-81
2022/12/17 19:48:08;;;;;;;74.05;30.10;;;-1.80;99.90;;;;;;5025581;28;20045;-80
2022/12/17 19:50:34;;;;;;;80.32;31.73;;;-1.80;99.90;;;;;;5021642;28;20373;-80
2022/12/17 19:52:59;;;;;;;74.18;31.15;;;-1.80;99.90;;;;;;5025366;28;20037;-80
2022/12/17 19:55:25;;;;;;;75.07;31.35;;;-1.80;99.90;;;;;;5014144;28;20495;-83
2022/12/17 19:57:51;;;;;;;74.88;30.50;;;-1.80;99.90;;;;;;5024409;28;20042;-83
2022/12/17 20:00:16;;;;;;;79.35;30.83;;;-1.80;99.90;;;;;;5025346;28;20944;-80
2022/12/17 20:02:42;;;;;;;71.30;29.45;;;-1.80;99.90;;;;;;5029656;28;20029;-81
2022/12/17 20:05:08;;;;;;;78.50;30.42;;;-1.90;99.90;;;;;;5038758;28;20053;-80
2022/12/17 20:07:34;;;;;;;80.60;33.03;;;-1.80;99.90;;;;;;5027180;28;20159;-81
2022/12/17 20:09:59;;;;;;;74.88;32.17;;;-1.90;99.90;;;;;;5020632;28;20378;-81
2022/12/17 20:12:25;;;;;;;78.80;31.35;;;-1.90;99.90;;;;;;5016590;28;20041;-80
2022/12/17 20:14:51;;;;;;;74.88;30.90;;;-1.90;99.90;;;;;;5021957;28;20045;-81
2022/12/17 20:17:16;;;;;;;82.45;33.28;;;-1.90;99.90;;;;;;5025611;28;20038;-81
2022/12/17 20:19:42;;;;;;;89.50;34.10;;;-1.90;99.90;;;;;;5027177;28;20112;-80
2022/12/17 20:22:09;;;;;;;80.95;34.03;;;-1.90;99.90;;;;;;5019934;28;20049;-80
2022/12/17 20:24:36;;;;;;;86.63;33.63;;;-1.90;99.90;;;;;;5007010;28;20060;-80
2022/12/17 20:27:01;;;;;;;77.43;32.75;;;-1.90;99.90;;;;;;5020287;28;20077;-81
2022/12/17 20:29:28;;;;;;;84.30;32.75;;;-1.90;99.90;;;;;;5024008;28;20123;-81
2022/12/17 20:31:54;;;;;;;87.68;33.65;;;-2.00;99.90;;;;;;5019778;28;20041;-81
2022/12/17 20:34:20;;;;;;;88.68;34.60;;;-2.00;99.90;;;;;;5002996;28;20046;-81
2022/12/17 20:36:46;;;;;;;78.75;33.17;;;-2.00;99.90;;;;;;5020145;28;20042;-81
2022/12/17 20:39:12;;;;;;;87.85;35.40;;;-2.00;99.90;;;;;;5021850;28;20073;-81
2022/12/17 20:41:39;;;;;;;84.78;31.00;;;-2.00;99.90;;;;;;5019367;28;20049;-81
2022/12/17 20:44:11;;;;;;;89.47;35.47;;;-2.00;99.90;;;;;;5023335;28;20037;-81
2022/12/17 20:46:37;;;;;;;87.20;34.20;;;-2.00;99.90;;;;;;5024271;28;20045;-81
2022/12/17 20:49:04;;;;;;;85.63;32.40;;;-2.10;99.90;;;;;;5022946;28;20041;-81
2022/12/17 20:51:30;;;;;;;103.05;36.08;;;-2.10;99.90;;;;;;5032379;28;20046;-81
2022/12/17 20:53:58;;;;;;;80.20;30.23;;;-2.10;99.90;;;;;;5017669;28;20046;-80
2022/12/17 20:56:27;;;;;;;89.53;32.65;;;-2.10;99.90;;;;;;5011804;28;20124;-81
2022/12/17 20:58:55;;;;;;;93.93;33.40;;;-2.10;99.90;;;;;;5015574;28;20045;-80
2022/12/17 21:01:23;;;;;;;95.88;34.88;;;-2.10;99.90;;;;;;5010327;28;20042;-80
2022/12/17 21:03:50;;;;;;;92.78;34.10;;;-2.10;99.90;;;;;;5016923;28;20805;-80
2022/12/17 21:06:19;;;;;;;84.53;33.10;;;-2.10;99.90;;;;;;5016514;28;20481;-80
2022/12/17 21:08:47;;;;;;;93.72;32.75;;;-2.10;99.90;;;;;;5015386;28;20041;-81
2022/12/17 21:11:14;;;;;;;94.93;32.50;;;-2.10;99.90;;;;;;5019220;28;20037;-81
2022/12/17 21:13:40;;;;;;;92.07;33.50;;;-2.20;99.90;;;;;;5016539;28;20045;-81
2022/12/17 21:16:11;;;;;;;93.90;34.45;;;-2.20;99.90;;;;;;5020511;28;20038;-80
2022/12/17 21:18:37;;;;;;;83.60;30.08;;;-2.20;99.90;;;;;;5008713;28;20042;-81
2022/12/17 21:21:05;;;;;;;82.43;31.40;;;-2.20;99.90;;;;;;5016332;28;20060;-81
2022/12/17 21:23:32;;;;;;;90.20;35.22;;;-2.30;99.90;;;;;;5014705;28;20030;-79
2022/12/17 21:26:17;;;;;;;75.38;32.33;;;-2.30;99.90;;;;;;5020880;28;20045;-79
2022/12/17 21:28:45;;;;;;;91.90;32.28;;;-2.30;99.90;;;;;;5018562;28;20037;-79
2022/12/17 21:31:17;;;;;;;84.63;33.47;;;-2.30;99.90;;;;;;5015754;28;20045;-79
2022/12/17 21:33:44;;;;;;;76.10;30.30;;;-2.30;99.90;;;;;;5011511;28;20504;-79
2022/12/17 21:36:10;;;;;;;87.05;33.92;;;-2.30;99.90;;;;;;5008791;28;20041;-79
2022/12/17 21:38:38;;;;;;;96.80;35.10;;;-2.30;99.90;;;;;;5032797;28;20046;-79
2022/12/17 21:41:07;;;;;;;83.50;31.25;;;-2.30;99.90;;;;;;5010625;28;20089;-80
2022/12/17 21:43:35;;;;;;;97.13;33.17;;;-2.30;99.90;;;;;;5015492;28;20061;-79
2022/12/17 21:46:01;;;;;;;102.13;35.38;;;-2.30;99.90;;;;;;5012368;28;20054;-80
2022/12/17 21:48:28;;;;;;;82.75;31.50;;;-2.20;99.90;;;;;;5022326;28;20075;-79
2022/12/17 21:50:56;;;;;;;78.03;32.63;;;-2.20;99.90;;;;;;5020672;28;20045;-79
2022/12/17 21:53:22;;;;;;;92.20;32.25;;;-2.20;99.90;;;;;;5017428;28;20045;-80
2022/12/17 21:55:48;;;;;;;83.75;29.95;;;-2.20;99.90;;;;;;5015808;28;20049;-80
2022/12/17 21:58:14;;;;;;;83.32;31.23;;;-2.20;99.90;;;;;;5017364;28;20041;-80
2022/12/17 22:00:41;;;;;;;84.95;32.10;;;-2.10;99.90;;;;;;5014385;28;20034;-81
2022/12/17 22:03:07;;;;;;;83.80;31.88;;;-2.10;99.90;;;;;;5017044;28;20037;-79
2022/12/17 22:05:35;;;;;;;84.10;31.40;;;-2.10;99.90;;;;;;5012184;28;20038;-79
2022/12/17 22:08:01;;;;;;;87.00;32.40;;;-2.10;99.90;;;;;;5014020;28;20121;-79
2022/12/17 22:10:27;;;;;;;89.10;32.45;;;-2.20;99.90;;;;;;5013283;28;20129;-79
2022/12/17 22:15:38;;;;;;;77.65;29.35;;;-2.20;99.90;;;;;;5015047;28;20431;-79
2022/12/17 22:18:05;;;;;;;103.78;36.33;;;-2.20;99.90;;;;;;5016841;28;20107;-79
2022/12/17 22:20:30;;;;;;;82.85;31.38;;;-2.20;99.90;;;;;;5016249;28;20033;-80
2022/12/17 22:22:56;;;;;;;80.18;29.05;;;-2.20;99.90;;;;;;5012190;28;20099;-79
2022/12/17 22:25:22;;;;;;;78.80;30.52;;;-2.20;99.90;;;;;;5014672;28;20657;-80
2022/12/17 22:27:48;;;;;;;74.75;26.92;;;-2.20;99.90;;;;;;5013965;28;20045;-80
2022/12/17 22:33:04;;;;;;;75.50;28.27;;;-2.30;99.90;;;;;;5011944;28;20041;-81
2022/12/17 22:35:36;;;;;;;83.07;27.73;;;-2.20;99.90;;;;;;5010384;28;20065;-81
2022/12/17 22:38:03;;;;;;;84.40;31.42;;;-2.30;99.90;;;;;;5011666;28;20069;-81
2022/12/17 22:40:31;;;;;;;79.50;27.48;;;-2.30;99.90;;;;;;5011375;28;20556;-80
2022/12/17 22:45:41;;;;;;;80.70;26.63;;;-2.40;99.90;;;;;;5022404;28;20079;-81
2022/12/17 22:48:09;;;;;;;85.60;29.90;;;-2.40;99.90;;;;;;5019778;28;20051;-81
2022/12/17 22:50:35;;;;;;;88.72;31.20;;;-2.40;99.90;;;;;;5011652;28;20121;-80
2022/12/17 22:53:01;;;;;;;70.97;27.25;;;-2.50;99.90;;;;;;5014047;28;20458;-80
2022/12/17 22:55:27;;;;;;;83.85;27.40;;;-2.50;99.90;;;;;;5017729;28;20088;-81
2022/12/17 22:57:53;;;;;;;81.35;28.15;;;-2.50;99.90;;;;;;5021896;28;20108;-80
2022/12/17 23:00:45;;;;;;;72.75;27.35;;;-2.50;99.90;;;;;;5003216;28;20103;-80
2022/12/17 23:03:11;;;;;;;79.05;26.83;;;-2.50;99.90;;;;;;5023962;28;20038;-80
2022/12/17 23:05:36;;;;;;;73.43;27.42;;;-2.50;99.90;;;;;;5013544;28;20038;-80
2022/12/17 23:08:02;;;;;;;68.30;25.17;;;-2.50;99.90;;;;;;5017223;28;20088;-78
2022/12/17 23:10:28;;;;;;;66.35;25.23;;;-2.50;99.90;;;;;;5000011;28;20120;-79
2022/12/17 23:12:54;;;;;;;69.22;24.83;;;-2.60;99.90;;;;;;5022842;28;20053;-80
2022/12/17 23:15:23;;;;;;;71.60;27.40;;;-2.60;99.90;;;;;;5012833;28;20115;-80
2022/12/17 23:17:49;;;;;;;65.15;25.63;;;-2.60;99.90;;;;;;5013860;28;20036;-79
2022/12/17 23:20:15;;;;;;;64.00;26.08;;;-2.60;99.90;;;;;;5013079;28;20038;-79
2022/12/17 23:22:41;;;;;;;60.45;24.48;;;-2.60;99.90;;;;;;5017098;28;20095;-80
2022/12/17 23:25:07;;;;;;;71.85;27.02;;;-2.60;99.90;;;;;;5009581;28;20046;-81
2022/12/17 23:27:33;;;;;;;73.63;26.13;;;-2.60;99.90;;;;;;5016685;28;20045;-80
2022/12/17 23:29:58;;;;;;;71.45;24.77;;;-2.60;99.90;;;;;;5019111;28;20081;-80
2022/12/17 23:32:24;;;;;;;79.00;27.73;;;-2.60;99.90;;;;;;5014499;28;20052;-80
2022/12/17 23:34:49;;;;;;;72.10;27.23;;;-2.60;99.90;;;;;;5013313;28;20480;-79
2022/12/17 23:37:15;;;;;;;69.50;27.52;;;-2.60;99.90;;;;;;5000503;28;20060;-80
2022/12/17 23:39:41;;;;;;;64.13;24.15;;;-2.60;99.90;;;;;;5016512;28;20073;-80
2022/12/17 23:42:06;;;;;;;74.75;27.63;;;-2.60;99.90;;;;;;5012801;28;20041;-80
2022/12/17 23:44:32;;;;;;;71.75;25.65;;;-2.60;99.90;;;;;;5015963;28;20064;-80
2022/12/17 23:46:57;;;;;;;67.55;25.38;;;-2.60;99.90;;;;;;5014532;28;20048;-80
2022/12/17 23:49:23;;;;;;;69.82;28.38;;;-2.60;99.90;;;;;;5014931;28;20521;-80
2022/12/17 23:51:49;;;;;;;66.68;24.73;;;-2.60;99.90;;;;;;5012613;28;20120;-80
2022/12/17 23:54:14;;;;;;;72.10;26.15;;;-2.60;99.90;;;;;;5014702;28;20038;-80
2022/12/17 23:56:40;;;;;;;79.88;26.33;;;-2.60;99.90;;;;;;5014915;28;20052;-80
2022/12/17 23:59:06;;;;;;;66.85;23.95;;;-2.60;99.90;;;;;;5013919;28;20029;-79
